Time;durP1;ratioP1;P1;durP2;ratioP2;P2;SDS_P1;SDS_P2;PMS_P1;PMS_P2;Temp;Humidity;BMP_temperature;BMP_pressure;BME280_temperature;BME280_humidity;BME280_pressure;Samples;Min_cycle;Max_cycle;Signal;HPM_P1;HPM_P2
2023/03/12 00:00:07;;;;;;;11.10;6.00;;;;;;;-1.33;85.35;97938.42;104808;1271;99429;-69
2023/03/12 00:02:35;;;;;;;12.60;6.40;;;;;;;-1.34;85.23;97937.36;104616;1266;99881;-69
2023/03/12 00:05:03;;;;;;;11.90;6.10;;;;;;;-1.35;85.10;97942.40;104525;1265;112530;-69
2023/03/12 00:07:30;;;;;;;12.40;6.00;;;;;;;-1.36;84.56;97947.64;104862;1271;99354;-69
2023/03/12 00:09:57;;;;;;;12.60;6.00;;;;;;;-1.35;84.56;97951.05;104829;1273;99243;-69
2023/03/12 00:12:24;;;;;;;11.00;5.80;;;;;;;-1.36;84.37;97958.88;104853;1262;99266;-69
2023/03/12 00:14:54;;;;;;;15.20;7.50;;;;;;;-1.36;84.24;97959.10;104831;1280;99255;-69
2023/03/12 00:17:22;;;;;;;12.80;6.60;;;;;;;-1.35;84.35;97965.34;104914;1273;113543;-70
2023/03/12 00:19:53;;;;;;;14.40;6.70;;;;;;;-1.35;84.28;97968.78;104580;1281;99419;-69
2023/03/12 00:22:24;;;;;;;14.20;7.00;;;;;;;-1.36;84.39;97971.46;104924;1262;108973;-69
2023/03/12 00:24:53;;;;;;;16.20;7.40;;;;;;;-1.39;84.45;97967.83;104605;1266;99434;-69
2023/03/12 00:27:21;;;;;;;16.30;7.80;;;;;;;-1.43;84.12;97966.48;104652;1263;99372;-69
2023/03/12 00:29:49;;;;;;;17.60;8.70;;;;;;;-1.50;83.98;97969.32;104932;1263;113784;-69
2023/03/12 00:32:16;;;;;;;19.00;9.50;;;;;;;-1.58;84.33;97968.59;104887;1263;99257;-70
2023/03/12 00:34:44;;;;;;;19.20;9.80;;;;;;;-1.66;84.41;97971.45;104747;1263;99317;-69
2023/03/12 00:37:10;;;;;;;18.50;10.50;;;;;;;-1.73;84.42;97973.93;104636;1262;99271;-70
2023/03/12 00:39:38;;;;;;;20.10;11.10;;;;;;;-1.81;84.63;97973.26;104641;1262;99253;-70
2023/03/12 00:42:05;;;;;;;21.10;10.20;;;;;;;-1.90;84.80;97980.27;104868;1264;99284;-68
2023/03/12 00:44:31;;;;;;;19.90;10.80;;;;;;;-1.99;84.95;97979.63;104905;1263;99277;-69
2023/03/12 00:46:58;;;;;;;16.20;8.90;;;;;;;-2.07;85.05;97977.96;104949;1262;99240;-70
2023/03/12 00:49:25;;;;;;;16.80;8.90;;;;;;;-2.14;85.25;97978.99;104966;1273;100593;-69
2023/03/12 00:51:52;;;;;;;20.60;9.00;;;;;;;-2.20;85.27;97981.98;104933;1263;113549;-69
2023/03/12 00:54:20;;;;;;;22.70;9.40;;;;;;;-2.25;85.25;97984.65;105000;1271;99327;-70
2023/03/12 00:56:47;;;;;;;20.30;10.20;;;;;;;-2.30;85.25;97984.15;104840;1273;108877;-68
2023/03/12 00:59:15;;;;;;;20.00;10.00;;;;;;;-2.31;85.39;97987.94;104938;1263;99491;-68
2023/03/12 01:01:42;;;;;;;18.60;8.80;;;;;;;-2.32;85.43;97988.83;104907;1281;99246;-68
2023/03/12 01:04:09;;;;;;;23.60;10.80;;;;;;;-2.31;85.62;97990.95;104857;1262;99601;-68
2023/03/12 01:06:36;;;;;;;23.10;11.40;;;;;;;-2.29;85.82;97994.77;104503;1264;323420;-68
2023/03/12 01:09:06;;;;;;;22.70;11.00;;;;;;;-2.25;85.83;97988.51;104804;1263;99320;-68
2023/03/12 01:11:33;;;;;;;24.00;11.50;;;;;;;-2.24;85.90;97989.12;104743;1271;99337;-69
2023/03/12 01:14:02;;;;;;;21.10;10.40;;;;;;;-2.22;85.79;97985.22;104921;1263;100451;-69
2023/03/12 01:16:29;;;;;;;21.40;11.00;;;;;;;-2.21;85.58;97983.95;105037;1281;113728;-69
2023/03/12 01:18:58;;;;;;;26.30;12.70;;;;;;;-2.20;85.65;97984.73;104932;1267;99329;-69
2023/03/12 01:21:26;;;;;;;25.00;13.40;;;;;;;-2.19;85.49;97978.39;104997;1263;106522;-69
2023/03/12 01:23:54;;;;;;;24.50;13.00;;;;;;;-2.22;85.26;97973.85;104953;1263;99279;-69
2023/03/12 01:26:21;;;;;;;28.60;13.20;;;;;;;-2.24;85.34;97968.19;104907;1271;99819;-69
2023/03/12 01:28:49;;;;;;;24.40;12.00;;;;;;;-2.28;85.22;97962.88;104953;1271;112584;-69
2023/03/12 01:31:18;;;;;;;23.30;11.40;;;;;;;-2.33;85.19;97963.16;104958;1271;99318;-68
2023/03/12 01:33:50;;;;;;;27.60;13.60;;;;;;;-2.40;85.04;97969.29;105009;1271;107743;-70
2023/03/12 01:36:22;;;;;;;27.40;14.20;;;;;;;-2.48;84.97;97970.09;104914;1271;100543;-68
2023/03/12 01:38:51;;;;;;;41.30;18.80;;;;;;;-2.54;85.12;97967.26;104985;1271;99378;-69
2023/03/12 01:41:19;;;;;;;38.80;17.30;;;;;;;-2.60;85.23;97966.58;104665;1266;112580;-69
2023/03/12 01:43:46;;;;;;;36.00;15.90;;;;;;;-2.66;85.22;97967.55;104657;1276;99314;-69
2023/03/12 01:46:24;;;;;;;31.60;14.00;;;;;;;-2.73;85.16;97975.44;104846;1271;99348;-69
2023/03/12 01:49:19;;;;;;;34.80;15.80;;;;;;;-2.81;85.34;97982.18;104521;1267;99359;-69
2023/03/12 01:52:00;;;;;;;23.30;11.20;;;;;;;-2.87;85.36;97988.18;104751;1264;100541;-69
2023/03/12 01:54:39;;;;;;;37.00;14.30;;;;;;;-2.91;85.48;97990.65;104639;1281;113637;-69
2023/03/12 01:57:11;;;;;;;33.10;14.10;;;;;;;-2.94;85.44;97994.14;104756;1271;99329;-68
2023/03/12 01:59:45;;;;;;;30.80;14.30;;;;;;;-2.95;85.36;97992.52;104675;1264;109015;-74
2023/03/12 02:02:14;;;;;;;31.80;14.80;;;;;;;-2.96;85.43;97988.80;104647;1263;100519;-69
2023/03/12 02:04:43;;;;;;;34.00;13.60;;;;;;;-2.97;85.43;97989.80;104907;1263;99736;-69
2023/03/12 02:07:15;;;;;;;36.00;15.60;;;;;;;-2.95;85.41;97989.06;104986;1263;113493;-69
2023/03/12 02:09:47;;;;;;;28.70;12.80;;;;;;;-2.96;85.37;97988.79;104986;1273;99476;-70
2023/03/12 02:12:15;;;;;;;30.20;13.50;;;;;;;-2.95;85.35;97991.45;104668;1276;107637;-70
2023/03/12 02:14:43;;;;;;;22.60;10.80;;;;;;;-2.95;85.26;97994.55;104806;1272;99772;-70
2023/03/12 02:17:11;;;;;;;25.70;11.40;;;;;;;-2.95;85.11;97996.70;104915;1261;99861;-68
2023/03/12 02:20:00;;;;;;;23.90;11.70;;;;;;;-2.94;85.09;97996.45;104764;1260;112624;-68
2023/03/12 02:22:28;;;;;;;27.40;11.20;;;;;;;-2.92;84.92;98003.61;104837;1271;99231;-69
2023/03/12 02:25:26;;;;;;;25.10;11.60;;;;;;;-2.91;84.91;98002.56;105019;1263;108587;-69
2023/03/12 02:27:54;;;;;;;19.70;9.50;;;;;;;-2.90;84.65;98015.12;104981;1263;99247;-69
2023/03/12 02:30:21;;;;;;;18.60;9.50;;;;;;;-2.90;84.85;98020.48;104989;1263;99576;-69
2023/03/12 02:32:50;;;;;;;21.40;11.50;;;;;;;-2.90;84.88;98026.76;105000;1264;99269;-68
2023/03/12 02:35:17;;;;;;;21.90;11.20;;;;;;;-2.92;84.96;98029.83;104621;1263;99409;-68
2023/03/12 02:37:54;;;;;;;17.60;9.00;;;;;;;-2.94;85.15;98031.73;104602;1271;100562;-69
2023/03/12 02:40:21;;;;;;;20.70;9.90;;;;;;;-2.97;85.06;98035.80;104807;1262;99267;-69
2023/03/12 02:42:48;;;;;;;18.40;8.10;;;;;;;-3.01;84.88;98038.52;104941;1273;99349;-69
2023/03/12 02:45:15;;;;;;;16.00;8.60;;;;;;;-3.05;84.99;98039.02;104879;1261;100648;-68
2023/03/12 02:47:41;;;;;;;20.60;9.70;;;;;;;-3.10;85.06;98038.95;104974;1274;99254;-69
2023/03/12 02:50:09;;;;;;;18.00;8.60;;;;;;;-3.13;85.13;98042.05;104890;1264;99935;-69
2023/03/12 02:52:37;;;;;;;19.70;9.10;;;;;;;-3.17;85.09;98042.98;104929;1263;99298;-69
2023/03/12 02:55:05;;;;;;;11.50;6.10;;;;;;;-3.21;85.28;98042.45;104970;1272;99264;-69
2023/03/12 02:57:36;;;;;;;18.60;8.00;;;;;;;-3.24;85.29;98039.38;104932;1262;99183;-69
2023/03/12 03:00:11;;;;;;;22.00;10.10;;;;;;;-3.25;85.36;98041.13;104860;1272;99370;-69
2023/03/12 03:02:39;;;;;;;19.20;9.10;;;;;;;-3.24;85.32;98043.72;104621;1266;107786;-69
2023/03/12 03:05:08;;;;;;;22.70;9.90;;;;;;;-3.23;85.13;98045.41;104529;1274;99298;-69
2023/03/12 03:07:35;;;;;;;19.90;9.90;;;;;;;-3.21;85.22;98053.16;104747;1264;99189;-69
2023/03/12 03:10:03;;;;;;;17.50;9.30;;;;;;;-3.18;85.03;98056.97;104937;1264;99362;-69
2023/03/12 03:12:31;;;;;;;20.50;9.80;;;;;;;-3.14;84.97;98060.73;104674;1274;99265;-69
2023/03/12 03:14:58;;;;;;;20.00;8.40;;;;;;;-3.10;84.73;98065.59;104622;1264;107674;-69
2023/03/12 03:17:26;;;;;;;15.30;8.00;;;;;;;-3.06;84.60;98068.61;104943;1272;99253;-69
2023/03/12 03:19:53;;;;;;;15.50;6.80;;;;;;;-3.02;84.48;98070.30;104614;1268;99324;-69
2023/03/12 03:22:21;;;;;;;14.80;7.00;;;;;;;-2.99;84.16;98075.02;104757;1271;99341;-70
2023/03/12 03:24:48;;;;;;;11.80;6.30;;;;;;;-2.98;84.19;98078.42;104763;1271;100546;-71
2023/03/12 03:27:15;;;;;;;12.10;6.30;;;;;;;-2.98;84.13;98081.64;104884;1271;99311;-70
2023/03/12 03:29:45;;;;;;;15.10;7.60;;;;;;;-2.98;84.12;98081.78;104817;1281;99329;-68
2023/03/12 03:32:12;;;;;;;13.80;7.20;;;;;;;-3.03;84.18;98084.50;104676;1277;99301;-68
2023/03/12 03:34:39;;;;;;;15.40;7.40;;;;;;;-3.05;84.11;98084.19;104718;1263;112544;-69
2023/03/12 03:37:06;;;;;;;10.40;5.80;;;;;;;-3.08;84.23;98088.52;104938;1263;99238;-69
2023/03/12 03:39:33;;;;;;;14.00;6.80;;;;;;;-3.09;84.31;98091.13;104952;1258;100629;-69
2023/03/12 03:42:00;;;;;;;12.80;6.00;;;;;;;-3.12;84.32;98097.44;104949;1263;99932;-70
2023/03/12 03:44:29;;;;;;;14.80;7.50;;;;;;;-3.14;84.39;98097.20;104801;1264;99969;-70
2023/03/12 03:46:56;;;;;;;14.70;6.90;;;;;;;-3.17;84.34;98098.98;104824;1258;99270;-71
2023/03/12 03:49:23;;;;;;;13.90;6.80;;;;;;;-3.18;84.36;98098.83;104602;1262;99235;-69
2023/03/12 03:51:53;;;;;;;17.90;8.40;;;;;;;-3.20;84.61;98098.95;104821;1263;99275;-69
2023/03/12 03:54:20;;;;;;;20.40;9.80;;;;;;;-3.21;84.59;98097.16;104940;1269;99390;-69
2023/03/12 03:56:47;;;;;;;20.20;8.80;;;;;;;-3.20;84.70;98100.14;104918;1274;99267;-70
2023/03/12 03:59:14;;;;;;;21.40;9.70;;;;;;;-3.19;84.84;98104.59;104667;1263;99252;-67
2023/03/12 04:01:41;;;;;;;25.80;10.00;;;;;;;-3.19;85.11;98103.54;104910;1273;99686;-68
2023/03/12 04:04:08;;;;;;;15.70;8.70;;;;;;;-3.17;85.11;98105.98;104901;1263;99275;-69
2023/03/12 04:06:35;;;;;;;16.20;8.60;;;;;;;-3.16;85.43;98108.95;104929;1264;100651;-68
2023/03/12 04:09:03;;;;;;;13.60;6.80;;;;;;;-3.13;85.41;98110.45;104900;1257;113163;-69
2023/03/12 04:11:29;;;;;;;15.20;7.30;;;;;;;-3.11;85.61;98105.98;104871;1264;99260;-69
2023/03/12 04:13:57;;;;;;;17.00;9.50;;;;;;;-3.10;85.94;98106.19;104852;1263;100469;-68
2023/03/12 04:16:24;;;;;;;17.00;8.40;;;;;;;-3.09;85.74;98108.71;104813;1257;99256;-68
2023/03/12 04:18:53;;;;;;;18.70;9.00;;;;;;;-3.08;85.97;98105.72;104753;1257;100558;-68
2023/03/12 04:21:26;;;;;;;20.00;8.70;;;;;;;-3.07;85.97;98108.05;104623;1264;113293;-69
2023/03/12 04:23:57;;;;;;;13.60;7.50;;;;;;;-3.07;85.80;98108.55;104666;1279;99349;-68
2023/03/12 04:26:30;;;;;;;16.40;8.10;;;;;;;-3.07;85.91;98106.02;104890;1257;108782;-69
2023/03/12 04:29:03;;;;;;;15.40;7.80;;;;;;;-3.07;85.87;98109.67;104981;1263;99291;-69
2023/03/12 04:31:36;;;;;;;13.80;6.30;;;;;;;-3.09;85.92;98112.79;104885;1271;99252;-68
2023/03/12 04:34:08;;;;;;;11.90;6.10;;;;;;;-3.11;85.77;98117.09;104931;1264;113368;-68
2023/03/12 04:36:44;;;;;;;16.90;8.70;;;;;;;-3.15;85.88;98116.21;104923;1271;99242;-68
2023/03/12 04:39:18;;;;;;;8.00;4.60;;;;;;;-3.18;85.88;98119.79;104512;1276;107004;-68
2023/03/12 04:41:48;;;;;;;14.00;7.10;;;;;;;-3.23;85.97;98121.67;104640;1263;99249;-68
2023/03/12 04:44:18;;;;;;;14.70;7.80;;;;;;;-3.27;85.92;98116.62;104855;1271;99242;-69
2023/03/12 04:46:49;;;;;;;15.50;7.00;;;;;;;-3.31;85.90;98121.26;104727;1264;113769;-69
2023/03/12 04:49:16;;;;;;;20.90;9.40;;;;;;;-3.34;85.97;98123.43;104918;1263;99256;-69
2023/03/12 04:51:43;;;;;;;15.90;7.30;;;;;;;-3.37;85.87;98125.88;104870;1271;99702;-70
2023/03/12 04:54:10;;;;;;;16.30;8.10;;;;;;;-3.41;86.00;98128.48;104983;1273;99298;-69
2023/03/12 04:56:37;;;;;;;18.20;8.90;;;;;;;-3.43;85.99;98133.27;104942;1261;99702;-69
2023/03/12 04:59:04;;;;;;;17.70;7.60;;;;;;;-3.43;86.04;98135.83;104787;1269;99263;-69
2023/03/12 05:01:34;;;;;;;41.40;14.20;;;;;;;-3.43;85.83;98137.34;104884;1257;99289;-68
2023/03/12 05:04:01;;;;;;;36.80;12.70;;;;;;;-3.40;85.92;98140.40;104874;1281;100438;-69
2023/03/12 05:06:28;;;;;;;29.70;11.30;;;;;;;-3.38;85.94;98134.59;104919;1263;99261;-69
2023/03/12 05:08:55;;;;;;;28.30;10.50;;;;;;;-3.35;85.90;98140.73;105144;1263;99326;-71
2023/03/12 05:11:22;;;;;;;29.60;11.50;;;;;;;-3.32;85.77;98138.80;105443;1265;99358;-69
2023/03/12 05:13:49;;;;;;;23.50;10.50;;;;;;;-3.27;85.78;98139.92;104752;1272;99234;-70
2023/03/12 05:16:17;;;;;;;14.20;6.30;;;;;;;-3.24;85.44;98142.25;104977;1271;99367;-70
2023/03/12 05:18:44;;;;;;;22.40;9.20;;;;;;;-3.22;85.59;98148.44;104924;1262;99372;-70
2023/03/12 05:21:14;;;;;;;23.90;10.20;;;;;;;-3.18;85.40;98154.41;104932;1281;99371;-69
2023/03/12 05:23:42;;;;;;;21.00;9.70;;;;;;;-3.16;85.43;98155.77;104782;1261;113949;-69
2023/03/12 05:26:22;;;;;;;14.10;6.00;;;;;;;-3.12;85.43;98163.98;104652;1266;99362;-69
2023/03/12 05:28:50;;;;;;;16.60;7.80;;;;;;;-3.10;85.32;98160.04;104910;1258;108843;-68
2023/03/12 05:31:18;;;;;;;10.10;4.80;;;;;;;-3.10;85.28;98163.64;104770;1261;99373;-69
2023/03/12 05:33:45;;;;;;;8.40;5.30;;;;;;;-3.10;85.10;98167.98;104754;1263;100548;-69
2023/03/12 05:36:13;;;;;;;14.70;7.00;;;;;;;-3.10;84.81;98166.27;104818;1263;113217;-70
2023/03/12 05:38:41;;;;;;;11.80;5.70;;;;;;;-3.08;84.94;98175.80;104770;1267;100460;-69
2023/03/12 05:41:22;;;;;;;16.70;7.80;;;;;;;-3.06;84.83;98173.58;104911;1261;108128;-70
2023/03/12 05:43:51;;;;;;;15.50;7.80;;;;;;;-3.00;84.67;98177.84;104722;1272;99243;-70
2023/03/12 05:46:17;;;;;;;17.30;6.60;;;;;;;-2.94;84.58;98178.87;104940;1260;99746;-71
2023/03/12 05:48:44;;;;;;;11.10;4.70;;;;;;;-2.90;84.39;98183.90;104699;1261;99450;-70
2023/03/12 05:51:11;;;;;;;19.10;8.60;;;;;;;-2.86;84.14;98182.88;104917;1266;99758;-70
2023/03/12 05:53:38;;;;;;;14.10;7.40;;;;;;;-2.82;84.10;98187.75;104767;1260;99259;-70
2023/03/12 05:56:09;;;;;;;13.80;5.70;;;;;;;-2.76;84.13;98191.55;104926;1261;99265;-68
2023/03/12 05:58:36;;;;;;;13.20;6.70;;;;;;;-2.75;83.63;98188.09;104958;1261;99329;-69
2023/03/12 06:01:12;;;;;;;15.00;7.60;;;;;;;-2.74;83.81;98189.99;104765;1274;112104;-69
2023/03/12 06:03:39;;;;;;;11.70;5.90;;;;;;;-2.73;83.88;98190.33;104545;1264;99378;-69
2023/03/12 06:06:06;;;;;;;19.10;8.80;;;;;;;-2.71;83.87;98197.72;104831;1270;99272;-69
2023/03/12 06:08:33;;;;;;;14.40;6.90;;;;;;;-2.69;84.06;98200.73;104764;1257;100535;-73
2023/03/12 06:11:00;;;;;;;10.40;3.80;;;;;;;-2.67;84.12;98205.33;105223;1261;100431;-70
2023/03/12 06:13:27;;;;;;;21.90;8.60;;;;;;;-2.66;83.78;98207.81;104498;1267;99527;-69
2023/03/12 06:15:54;;;;;;;20.30;9.80;;;;;;;-2.62;84.15;98209.33;104570;1275;99439;-70
2023/03/12 06:18:21;;;;;;;18.40;8.20;;;;;;;-2.54;84.05;98213.19;104578;1264;100727;-70
2023/03/12 06:20:47;;;;;;;21.40;8.90;;;;;;;-2.45;84.14;98218.08;104523;1266;99766;-70
2023/03/12 06:23:15;;;;;;;20.70;9.20;;;;;;;-2.36;84.28;98221.19;104571;1276;99422;-68
2023/03/12 06:25:48;;;;;;;24.70;10.60;;;;;;;-2.27;84.01;98226.31;104591;1264;99783;-70
2023/03/12 06:28:23;;;;;;;13.30;6.60;;;;;;;-2.18;84.11;98228.88;104584;1279;108648;-70
2023/03/12 06:30:55;;;;;;;15.00;6.90;;;;;;;-2.10;83.69;98226.06;104398;1264;100729;-69
2023/03/12 06:33:34;;;;;;;10.20;4.90;;;;;;;-2.08;83.43;98225.20;104877;1258;99498;-69
2023/03/12 06:36:10;;;;;;;10.30;4.60;;;;;;;-2.08;83.09;98228.47;104552;1257;112512;-70
2023/03/12 06:38:43;;;;;;;40.30;16.40;;;;;;;-2.14;82.89;98231.91;104620;1264;99352;-68
2023/03/12 06:41:19;;;;;;;81.30;28.30;;;;;;;-2.18;83.35;98236.36;104496;1278;107653;-69
2023/03/12 06:43:54;;;;;;;191.90;76.00;;;;;;;-2.21;83.96;98241.39;104752;1274;99336;-68
2023/03/12 06:46:31;;;;;;;307.70;131.00;;;;;;;-2.14;84.54;98242.38;104520;1268;99363;-68
2023/03/12 06:49:06;;;;;;;87.50;38.00;;;;;;;-2.07;84.38;98244.76;104764;1273;113678;-69
2023/03/12 06:51:39;;;;;;;58.60;33.40;;;;;;;-2.00;83.96;98250.19;104632;1257;99432;-70
2023/03/12 06:54:06;;;;;;;161.60;79.90;;;;;;;-1.94;83.73;98249.23;104877;1263;99269;-69
2023/03/12 06:56:33;;;;;;;473.70;291.60;;;;;;;-1.83;83.98;98255.17;104886;1258;100513;-69
2023/03/12 06:59:00;;;;;;;68.40;36.10;;;;;;;-1.71;84.11;98257.25;104871;1272;99802;-69
2023/03/12 07:01:26;;;;;;;60.00;36.50;;;;;;;-1.57;83.48;98254.89;104804;1261;99377;-69
2023/03/12 07:03:53;;;;;;;205.10;124.00;;;;;;;-1.43;82.91;98260.05;104992;1258;99342;-69
2023/03/12 07:06:23;;;;;;;40.70;27.00;;;;;;;-1.32;82.80;98260.65;105007;1260;99222;-67
2023/03/12 07:08:50;;;;;;;46.00;27.00;;;;;;;-1.21;82.42;98262.70;104975;1270;99269;-68
2023/03/12 07:11:17;;;;;;;49.00;29.90;;;;;;;-1.10;82.67;98264.58;104770;1264;112591;-68
2023/03/12 07:13:46;;;;;;;28.50;16.70;;;;;;;-1.05;81.98;98265.45;104781;1272;99253;-68
2023/03/12 07:16:13;;;;;;;43.70;28.10;;;;;;;-1.05;81.48;98261.42;104868;1260;108923;-68
2023/03/12 07:18:40;;;;;;;33.40;18.80;;;;;;;-1.09;81.07;98262.02;104919;1261;99162;-68
2023/03/12 07:21:07;;;;;;;30.40;16.60;;;;;;;-1.10;81.40;98263.72;104961;1257;99297;-68
2023/03/12 07:23:34;;;;;;;20.00;10.10;;;;;;;-1.08;81.88;98263.00;104954;1256;99267;-67
2023/03/12 07:26:04;;;;;;;15.10;8.40;;;;;;;-1.04;81.63;98263.10;104652;1260;99351;-67
2023/03/12 07:28:31;;;;;;;15.00;9.10;;;;;;;-0.98;81.52;98262.77;104827;1260;109715;-68
2023/03/12 07:31:02;;;;;;;20.90;9.10;;;;;;;-0.89;81.50;98261.96;104741;1270;99249;-72
2023/03/12 07:33:30;;;;;;;22.20;10.40;;;;;;;-0.75;81.65;98257.67;104921;1261;100498;-70
2023/03/12 07:35:58;;;;;;;20.60;10.40;;;;;;;-0.61;80.97;98267.02;104656;1265;113178;-70
2023/03/12 07:38:25;;;;;;;17.50;7.30;;;;;;;-0.43;80.59;98262.91;104925;1257;99267;-72
2023/03/12 07:40:55;;;;;;;13.80;6.50;;;;;;;-0.30;78.96;98261.95;104903;1263;99255;-70
2023/03/12 07:43:24;;;;;;;16.50;8.40;;;;;;;-0.16;78.42;98263.42;104520;1266;99455;-67
2023/03/12 07:45:51;;;;;;;10.80;5.30;;;;;;;-0.01;78.55;98262.78;104649;1257;99546;-68
2023/03/12 07:48:18;;;;;;;9.50;5.80;;;;;;;0.08;76.92;98260.94;104931;1271;100543;-68
2023/03/12 07:50:46;;;;;;;11.70;6.50;;;;;;;0.13;77.12;98262.23;104646;1258;99477;-68
2023/03/12 07:53:14;;;;;;;10.00;5.70;;;;;;;0.21;77.54;98263.86;104868;1257;108641;-67
2023/03/12 07:55:44;;;;;;;12.00;6.20;;;;;;;0.22;76.30;98262.69;104795;1261;100536;-67
2023/03/12 07:58:14;;;;;;;15.70;7.60;;;;;;;0.23;76.82;98261.77;104595;1266;99423;-66
2023/03/12 08:00:41;;;;;;;12.80;6.90;;;;;;;0.24;76.91;98262.60;104863;1270;113388;-66
2023/03/12 08:03:08;;;;;;;4.80;3.30;;;;;;;0.26;76.48;98265.73;104950;1266;99228;-67
2023/03/12 08:05:36;;;;;;;14.90;7.90;;;;;;;0.22;75.34;98267.32;104878;1263;99278;-67
2023/03/12 08:08:04;;;;;;;20.80;9.90;;;;;;;0.32;76.26;98264.39;104733;1260;99372;-67
2023/03/12 08:10:31;;;;;;;21.20;9.70;;;;;;;0.62;77.14;98259.73;104926;1256;99249;-66
2023/03/12 08:12:58;;;;;;;7.80;4.20;;;;;;;1.00;76.35;98262.63;104720;1267;99313;-66
2023/03/12 08:15:25;;;;;;;19.40;8.90;;;;;;;1.18;74.06;98260.52;104772;1261;99297;-66
2023/03/12 08:17:52;;;;;;;16.30;7.90;;;;;;;1.42;74.22;98258.26;104700;1260;99243;-65
2023/03/12 08:20:19;;;;;;;22.00;11.30;;;;;;;1.55;73.92;98256.49;104969;1270;99273;-66
2023/03/12 08:22:46;;;;;;;21.50;9.10;;;;;;;1.66;72.83;98257.98;104819;1260;99364;-65
2023/03/12 08:25:14;;;;;;;10.00;5.10;;;;;;;1.75;71.39;98256.13;104761;1261;99324;-65
2023/03/12 08:27:43;;;;;;;11.20;5.70;;;;;;;1.91;71.80;98253.08;104870;1263;99366;-65
2023/03/12 08:30:22;;;;;;;12.40;5.70;;;;;;;2.20;71.42;98254.60;104461;1264;108583;-66
2023/03/12 08:32:49;;;;;;;14.50;6.90;;;;;;;2.44;70.32;98256.40;104788;1260;99333;-66
2023/03/12 08:35:16;;;;;;;29.10;16.50;;;;;;;2.57;69.28;98253.98;104937;1260;99328;-65
2023/03/12 08:37:43;;;;;;;18.20;8.90;;;;;;;2.70;68.66;98256.41;104827;1272;99387;-68
2023/03/12 08:40:11;;;;;;;8.90;5.30;;;;;;;2.91;68.67;98258.33;104836;1263;100549;-71
2023/03/12 08:42:41;;;;;;;19.90;8.80;;;;;;;3.13;66.92;98262.78;104949;1271;99378;-71
2023/03/12 08:45:09;;;;;;;13.80;7.00;;;;;;;3.40;65.97;98264.77;104548;1278;99359;-72
2023/03/12 08:47:40;;;;;;;29.00;11.70;;;;;;;3.57;66.19;98266.23;104670;1270;99578;-70
2023/03/12 08:50:10;;;;;;;26.10;10.90;;;;;;;3.81;65.27;98266.02;104894;1272;114393;-73
2023/03/12 08:52:38;;;;;;;17.60;7.10;;;;;;;4.12;65.96;98267.42;104849;1257;99226;-73
2023/03/12 08:55:05;;;;;;;35.10;12.90;;;;;;;4.48;65.00;98269.63;104667;1264;107598;-69
2023/03/12 08:57:33;;;;;;;16.60;8.30;;;;;;;4.76;62.36;98272.77;104991;1261;99249;-69
2023/03/12 09:00:00;;;;;;;12.60;6.60;;;;;;;4.91;61.35;98271.02;104961;1258;100478;-69
2023/03/12 09:02:27;;;;;;;24.80;12.00;;;;;;;5.06;61.96;98269.78;104959;1270;111811;-68
2023/03/12 09:04:54;;;;;;;16.50;8.40;;;;;;;5.35;62.25;98270.52;104928;1260;100540;-67
2023/03/12 09:07:21;;;;;;;11.60;6.40;;;;;;;5.49;59.59;98270.75;104928;1261;100556;-67
2023/03/12 09:09:49;;;;;;;9.80;5.50;;;;;;;5.56;58.38;98272.52;104891;1260;100437;-67
2023/03/12 09:12:16;;;;;;;7.90;4.60;;;;;;;5.71;58.08;98277.61;104906;1260;99301;-67
2023/03/12 09:14:43;;;;;;;11.80;5.90;;;;;;;5.84;58.28;98277.30;104701;1261;99260;-67
2023/03/12 09:17:31;;;;;;;21.60;12.20;;;;;;;6.13;57.88;98279.38;104909;1261;100551;-66
2023/03/12 09:19:58;;;;;;;10.40;5.70;;;;;;;6.48;59.25;98279.27;104907;1263;107827;-67
2023/03/12 09:22:29;;;;;;;21.30;11.10;;;;;;;6.73;58.39;98275.71;104799;1263;99256;-67
2023/03/12 09:24:56;;;;;;;44.20;19.50;;;;;;;7.04;58.37;98269.80;104978;1260;99391;-67
2023/03/12 09:27:23;;;;;;;277.50;109.00;;;;;;;7.22;55.89;98270.79;104809;1278;99235;-66
2023/03/12 09:29:52;;;;;;;26.10;11.60;;;;;;;7.30;54.65;98276.09;104713;1261;100010;-66
2023/03/12 09:32:27;;;;;;;205.20;90.40;;;;;;;7.37;55.63;98273.71;104609;1261;109048;-66
2023/03/12 09:34:54;;;;;;;68.80;41.70;;;;;;;7.41;55.06;98273.21;104674;1263;99380;-66
2023/03/12 09:37:22;;;;;;;30.50;17.50;;;;;;;7.55;56.89;98274.09;104862;1260;99342;-66
2023/03/12 09:39:51;;;;;;;33.10;23.90;;;;;;;7.90;56.29;98277.70;104759;1260;114737;-66
2023/03/12 09:42:39;;;;;;;278.90;205.20;;;;;;;7.92;53.16;98279.79;104895;1272;99229;-67
2023/03/12 09:45:11;;;;;;;42.10;26.70;;;;;;;8.13;52.41;98280.70;104897;1257;108674;-69
2023/03/12 09:48:01;;;;;;;27.30;17.30;;;;;;;8.42;53.13;98283.17;104620;1266;99480;-67
2023/03/12 09:50:42;;;;;;;39.50;27.50;;;;;;;8.65;52.11;98276.70;104944;1261;99268;-67
2023/03/12 09:53:24;;;;;;;31.00;23.50;;;;;;;8.92;52.50;98283.28;104834;1263;113227;-67
2023/03/12 09:55:54;;;;;;;27.90;22.00;;;;;;;8.96;51.18;98282.40;104877;1263;99781;-68
2023/03/12 09:58:37;;;;;;;109.00;94.10;;;;;;;9.07;51.14;98282.50;104586;1265;107622;-70
2023/03/12 10:01:42;;;;;;;11.80;7.90;;;;;;;9.01;50.43;98289.98;104553;1279;100562;-69
2023/03/12 10:04:23;;;;;;;17.80;12.80;;;;;;;8.90;49.52;98285.98;104539;1265;99401;-70
2023/03/12 10:07:26;;;;;;;;;;;;;;;8.80;50.23;98292.96;104795;1261;113028;-69
2023/03/12 10:10:19;;;;;;;10.80;6.60;;;;;;;8.49;49.92;98289.02;104530;1264;99590;-71
2023/03/12 10:13:27;;;;;;;9.50;5.90;;;;;;;8.54;50.35;98285.00;104729;1260;107623;-74
2023/03/12 10:16:29;;;;;;;10.60;6.00;;;;;;;8.76;50.72;98286.23;104895;1257;99342;-71
2023/03/12 10:19:29;;;;;;;8.80;4.70;;;;;;;9.08;50.11;98288.67;104894;1258;99363;-71
2023/03/12 10:22:22;;;;;;;8.30;4.70;;;;;;;9.25;49.52;98286.96;104599;1267;112780;-71
2023/03/12 10:25:00;;;;;;;9.80;4.90;;;;;;;9.43;47.51;98282.45;104311;1267;99419;-71
2023/03/12 10:27:29;;;;;;;7.50;5.00;;;;;;;9.58;47.81;98281.67;104428;1264;108809;-70
2023/03/12 10:29:57;;;;;;;7.40;4.80;;;;;;;9.87;48.68;98279.75;104474;1268;99327;-71
2023/03/12 10:32:36;;;;;;;7.60;5.80;;;;;;;10.23;47.49;98277.94;104453;1266;99773;-71
2023/03/12 10:35:15;;;;;;;10.10;6.80;;;;;;;10.54;46.44;98272.34;104307;1278;114674;-71
2023/03/12 10:37:57;;;;;;;8.50;6.00;;;;;;;10.74;46.08;98273.80;104402;1265;99557;-72
2023/03/12 10:40:27;;;;;;;8.50;5.60;;;;;;;10.83;46.43;98274.38;104206;1265;108193;-73
2023/03/12 10:42:54;;;;;;;9.30;5.20;;;;;;;11.03;46.00;98274.49;105268;1271;99370;-74
2023/03/12 10:45:37;;;;;;;7.50;4.80;;;;;;;11.00;45.15;98271.57;104534;1268;99399;-74
2023/03/12 10:48:10;;;;;;;6.60;4.70;;;;;;;11.11;44.29;98271.60;104458;1280;113713;-73
2023/03/12 10:50:39;;;;;;;8.00;5.10;;;;;;;11.02;43.89;98269.14;104376;1270;99345;-75
2023/03/12 10:53:31;;;;;;;5.80;4.50;;;;;;;11.14;44.64;98273.80;104422;1268;108574;-75
2023/03/12 10:56:07;;;;;;;7.10;5.10;;;;;;;11.31;43.95;98269.77;104400;1268;99367;-76
2023/03/12 10:58:42;;;;;;;9.30;5.70;;;;;;;11.53;44.41;98262.61;104571;1268;99673;-76
2023/03/12 11:01:23;;;;;;;6.80;5.40;;;;;;;11.62;43.38;98267.11;104497;1281;113666;-76
2023/03/12 11:03:52;;;;;;;8.90;5.50;;;;;;;11.48;42.05;98261.29;104922;1257;99369;-76
2023/03/12 11:06:29;;;;;;;8.30;5.10;;;;;;;11.46;42.11;98263.48;104930;1274;109042;-75
2023/03/12 11:09:19;;;;;;;4.90;3.30;;;;;;;11.56;43.17;98261.40;104778;1262;99423;-75
2023/03/12 11:11:48;;;;;;;5.30;4.00;;;;;;;11.34;41.79;98254.86;104767;1262;99267;-76
2023/03/12 11:14:27;;;;;;;6.40;4.30;;;;;;;11.29;42.78;98255.13;104853;1262;114322;-76
2023/03/12 11:16:56;;;;;;;7.70;4.20;;;;;;;11.37;42.69;98254.42;104865;1262;99235;-76
2023/03/12 11:19:29;;;;;;;6.80;4.50;;;;;;;11.43;43.45;98256.63;104864;1262;108779;-77
2023/03/12 11:22:00;;;;;;;6.40;4.60;;;;;;;11.21;41.61;98254.55;104928;1263;99267;-76
2023/03/12 11:24:27;;;;;;;8.20;5.40;;;;;;;10.97;42.15;98253.73;104928;1262;99794;-77
2023/03/12 11:27:19;;;;;;;64.60;25.40;;;;;;;10.95;43.48;98252.33;104929;1262;99257;-77
2023/03/12 11:29:49;;;;;;;212.10;95.90;;;;;;;11.30;41.34;98249.59;104707;1271;99313;-77